createdAt,value
2023-03-14T00:00:19.668Z,97295.78
2023-03-14T00:02:46.280Z,97298.41
2023-03-14T00:05:13.039Z,97308.91
2023-03-14T00:07:40.677Z,97315.94
2023-03-14T00:10:11.665Z,97321.38
2023-03-14T00:12:38.359Z,97329.91
2023-03-14T00:15:07.931Z,97328.44
2023-03-14T00:17:36.445Z,97340.50
2023-03-14T00:20:09.192Z,97345.47
2023-03-14T00:22:37.072Z,97337.16
2023-03-14T00:25:04.883Z,97345.88
2023-03-14T00:27:31.688Z,97353.50
2023-03-14T00:29:58.355Z,97362.38
2023-03-14T00:32:25.251Z,97352.13
2023-03-14T00:34:51.833Z,97356.66
2023-03-14T00:37:18.530Z,97353.38
2023-03-14T00:39:45.108Z,97344.84
2023-03-14T00:42:11.996Z,97365.44
2023-03-14T00:44:38.696Z,97351.00
2023-03-14T00:47:05.368Z,97365.75
2023-03-14T00:49:32.025Z,97376.72
2023-03-14T00:51:58.566Z,97377.63
2023-03-14T00:54:25.184Z,97391.56
2023-03-14T00:56:51.728Z,97381.63
2023-03-14T00:59:18.564Z,97388.63
2023-03-14T01:01:45.331Z,97403.31
2023-03-14T01:04:11.983Z,97402.53
2023-03-14T01:06:38.700Z,97406.00
2023-03-14T01:09:05.537Z,97435.28
2023-03-14T01:11:34.454Z,97442.19
2023-03-14T01:14:01.530Z,97452.56
2023-03-14T01:16:30.887Z,97456.19
2023-03-14T01:18:57.557Z,97463.28
2023-03-14T01:21:26.478Z,97457.19
2023-03-14T01:23:55.040Z,97458.72
2023-03-14T01:26:25.136Z,97467.44
2023-03-14T01:28:53.982Z,97464.38
2023-03-14T01:31:20.692Z,97473.09
2023-03-14T01:33:47.564Z,97481.53
2023-03-14T01:36:15.119Z,97485.09
2023-03-14T01:38:41.787Z,97494.91
2023-03-14T01:41:12.904Z,97493.91
2023-03-14T01:43:39.442Z,97498.63
2023-03-14T01:51:46.735Z,97511.75
2023-03-14T01:54:38.117Z,97517.84
2023-03-14T01:59:44.206Z,97537.69
2023-03-14T02:02:13.086Z,97564.25
2023-03-14T02:04:40.870Z,97565.34
2023-03-14T02:09:44.288Z,97588.31
2023-03-14T02:12:12.554Z,97585.84
2023-03-14T02:14:39.216Z,97602.06
2023-03-14T02:17:08.555Z,97605.28
2023-03-14T02:19:51.954Z,97613.28
2023-03-14T02:22:18.665Z,97620.97
2023-03-14T02:27:21.822Z,97630.25
2023-03-14T02:32:27.193Z,97652.03
2023-03-14T02:34:57.606Z,97643.53
2023-03-14T02:37:25.829Z,97653.13
2023-03-14T02:39:52.549Z,97665.25
2023-03-14T02:42:19.136Z,97662.75
2023-03-14T02:47:31.562Z,97681.72
2023-03-14T02:50:04.119Z,97683.53
2023-03-14T02:52:30.830Z,97692.22
2023-03-14T02:54:57.560Z,97694.72
2023-03-14T02:57:24.099Z,97699.09
2023-03-14T02:59:50.627Z,97697.44
2023-03-14T03:02:17.374Z,97698.34
2023-03-14T03:04:43.902Z,97700.06
2023-03-14T03:07:10.502Z,97711.34
2023-03-14T03:09:37.063Z,97704.75
2023-03-14T03:12:03.800Z,97707.09
2023-03-14T03:14:30.330Z,97709.78
2023-03-14T03:16:56.941Z,97713.50
2023-03-14T03:19:23.587Z,97718.00
2023-03-14T03:21:50.169Z,97727.41
2023-03-14T03:24:16.779Z,97735.25
2023-03-14T03:26:43.329Z,97742.09
2023-03-14T03:29:09.871Z,97738.72
2023-03-14T03:31:39.181Z,97753.31
2023-03-14T03:34:05.812Z,97771.94
2023-03-14T03:36:32.354Z,97775.38
2023-03-14T03:38:58.891Z,97786.66
2023-03-14T03:41:25.704Z,97795.22
2023-03-14T03:43:52.382Z,97796.91
2023-03-14T03:46:18.949Z,97815.66
2023-03-14T03:48:45.567Z,97822.47
2023-03-14T03:51:14.711Z,97822.63
2023-03-14T03:53:42.056Z,97829.41
2023-03-14T03:56:09.410Z,97836.28
2023-03-14T03:58:36.106Z,97839.88
2023-03-14T04:01:02.721Z,97853.53
2023-03-14T04:03:29.501Z,97864.59
2023-03-14T04:06:01.269Z,97870.63
2023-03-14T04:08:28.825Z,97868.91
2023-03-14T04:10:58.200Z,97888.63
2023-03-14T04:13:25.392Z,97887.72
2023-03-14T04:15:53.076Z,97894.63
2023-03-14T04:18:20.144Z,97903.19
2023-03-14T04:20:46.701Z,97904.94
2023-03-14T04:23:13.331Z,97913.47
2023-03-14T04:25:39.863Z,97909.31
2023-03-14T04:28:06.410Z,97917.88
2023-03-14T04:30:32.950Z,97925.59
2023-03-14T04:32:59.618Z,97933.19
2023-03-14T04:35:26.232Z,97937.47
2023-03-14T04:37:53.045Z,97946.03
2023-03-14T04:40:19.713Z,97952.84
2023-03-14T04:42:46.246Z,97966.53
2023-03-14T04:45:12.779Z,97974.25
2023-03-14T04:47:39.331Z,97985.31
2023-03-14T04:50:06.423Z,97985.47
2023-03-14T04:52:32.940Z,97990.59
2023-03-14T04:54:59.468Z,97991.44
2023-03-14T04:57:26.097Z,98009.44
2023-03-14T04:59:52.692Z,98024.00
2023-03-14T05:02:19.245Z,98024.81
2023-03-14T05:04:45.845Z,98037.59
2023-03-14T05:07:13.887Z,98041.84
2023-03-14T05:09:41.196Z,98047.94
2023-03-14T05:12:07.852Z,98052.16
2023-03-14T05:14:34.410Z,98063.31
2023-03-14T05:17:00.942Z,98065.00
2023-03-14T05:19:27.646Z,98075.34
2023-03-14T05:21:54.223Z,98083.03
2023-03-14T05:24:20.756Z,98085.63
2023-03-14T05:26:47.282Z,98093.31
2023-03-14T05:29:13.941Z,98103.66
2023-03-14T05:31:40.529Z,98115.72
2023-03-14T05:34:07.140Z,98126.75
2023-03-14T05:36:33.715Z,98126.75
2023-03-14T05:39:00.290Z,98141.31
2023-03-14T05:41:26.823Z,98156.69
2023-03-14T05:43:53.359Z,98163.50
2023-03-14T05:46:19.916Z,98172.91
2023-03-14T05:48:46.538Z,98183.16
2023-03-14T05:51:13.364Z,98193.44
2023-03-14T05:53:39.959Z,98198.56
2023-03-14T05:56:07.071Z,98204.53
2023-03-14T05:58:33.636Z,98215.63
2023-03-14T06:01:04.524Z,98225.03
2023-03-14T06:03:31.190Z,98230.13
2023-03-14T06:05:57.763Z,98244.63
2023-03-14T06:08:24.638Z,98249.75
2023-03-14T06:10:52.234Z,98255.72
2023-03-14T06:13:18.787Z,98260.84
2023-03-14T06:15:45.433Z,98271.91
2023-03-14T06:18:13.270Z,98286.41
2023-03-14T06:20:40.296Z,98293.22
2023-03-14T06:23:08.025Z,98296.66
2023-03-14T06:25:36.059Z,98311.97
2023-03-14T06:28:02.687Z,98330.72
2023-03-14T06:30:29.337Z,98330.75
2023-03-14T06:32:56.646Z,98342.69
2023-03-14T06:35:24.101Z,98354.63
2023-03-14T06:37:50.792Z,98372.50
2023-03-14T06:40:18.977Z,98379.31
2023-03-14T06:42:46.295Z,98391.25
2023-03-14T06:45:12.834Z,98410.88
2023-03-14T06:47:39.368Z,98424.50
2023-03-14T06:50:07.834Z,98427.03
2023-03-14T06:52:34.783Z,98437.25
2023-03-14T06:55:01.422Z,98454.31
2023-03-14T06:57:27.933Z,98465.41
2023-03-14T06:59:54.511Z,98468.78
2023-03-14T07:02:29.589Z,98475.56
2023-03-14T07:05:02.870Z,98484.06
2023-03-14T07:07:29.981Z,98499.38
2023-03-14T07:09:56.518Z,98509.59
2023-03-14T07:12:23.097Z,98521.50
2023-03-14T07:14:49.626Z,98530.00
2023-03-14T07:17:16.188Z,98531.69
2023-03-14T07:19:42.822Z,98541.00
2023-03-14T07:22:09.390Z,98545.25
2023-03-14T07:24:35.915Z,98562.25
2023-03-14T07:27:02.477Z,98570.78
2023-03-14T07:29:29.010Z,98575.03
2023-03-14T07:31:55.529Z,98582.69
2023-03-14T07:34:22.130Z,98592.09
2023-03-14T07:36:48.782Z,98601.47
2023-03-14T07:39:15.401Z,98604.03
2023-03-14T07:41:41.972Z,98615.13
2023-03-14T07:44:08.498Z,98627.97
2023-03-14T07:46:35.124Z,98633.94
2023-03-14T07:49:01.775Z,98639.09
2023-03-14T07:51:28.330Z,98652.75
2023-03-14T07:53:54.883Z,98654.53
2023-03-14T07:56:21.430Z,98661.41
2023-03-14T07:58:47.936Z,98676.78
2023-03-14T08:01:14.492Z,98685.34
2023-03-14T08:03:41.106Z,98695.63
2023-03-14T08:06:07.961Z,98704.16
2023-03-14T08:08:34.850Z,98707.59
2023-03-14T08:11:06.556Z,98716.09
2023-03-14T08:13:33.505Z,98714.41
2023-03-14T08:16:00.119Z,98731.47
2023-03-14T08:18:26.846Z,98734.06
2023-03-14T08:20:53.430Z,98745.22
2023-03-14T08:23:20.037Z,98744.41
2023-03-14T08:25:46.617Z,98760.69
2023-03-14T08:28:13.151Z,98772.78
2023-03-14T08:30:39.740Z,98771.19
2023-03-14T08:33:06.319Z,98774.69
2023-03-14T08:35:33.013Z,98780.78
2023-03-14T08:38:00.323Z,98786.72
2023-03-14T08:40:26.824Z,98788.31
2023-03-14T08:42:53.764Z,98804.56
2023-03-14T08:45:20.408Z,98808.00
2023-03-14T08:47:47.356Z,98811.44
2023-03-14T08:50:16.396Z,98828.59
2023-03-14T08:52:43.480Z,98838.00
2023-03-14T08:55:10.548Z,98847.22
2023-03-14T08:57:37.486Z,98861.13
2023-03-14T09:00:11.890Z,98874.44
2023-03-14T09:02:38.972Z,98866.59
2023-03-14T09:05:06.504Z,98882.31
2023-03-14T09:07:33.054Z,98878.06
2023-03-14T09:09:59.652Z,98882.69
2023-03-14T09:12:26.758Z,98888.25
2023-03-14T09:14:53.478Z,98897.19
2023-03-14T09:17:23.227Z,98897.25
2023-03-14T09:19:49.743Z,98907.47
2023-03-14T09:22:16.264Z,98911.09
2023-03-14T09:24:43.100Z,98919.44
2023-03-14T09:27:09.811Z,98919.44
2023-03-14T09:29:36.365Z,98928.00
2023-03-14T09:32:02.955Z,98928.69
2023-03-14T09:34:29.485Z,98936.78
2023-03-14T09:36:56.287Z,98933.88
2023-03-14T09:39:22.820Z,98942.50
2023-03-14T09:41:53.099Z,98953.22
2023-03-14T09:44:29.812Z,98959.50
2023-03-14T09:46:58.911Z,98957.72
2023-03-14T09:49:30.018Z,98971.88
2023-03-14T09:52:04.017Z,98969.34
2023-03-14T09:54:37.068Z,98985.16
2023-03-14T09:57:05.249Z,98987.00
2023-03-14T09:59:32.969Z,99003.66
2023-03-14T10:02:03.307Z,99011.94
2023-03-14T10:04:31.195Z,99020.16
2023-03-14T10:06:57.805Z,99024.47
2023-03-14T10:09:26.417Z,99018.34
2023-03-14T10:11:56.981Z,99030.00
2023-03-14T10:14:36.192Z,99036.16
2023-03-14T10:17:13.643Z,99041.78
2023-03-14T10:20:00.762Z,99048.31
2023-03-14T10:22:31.804Z,99056.72
2023-03-14T10:25:03.694Z,99063.44
2023-03-14T10:27:33.149Z,99076.81
2023-03-14T10:30:04.642Z,99079.97
2023-03-14T10:32:35.982Z,99080.19
2023-03-14T10:35:19.055Z,99081.63
2023-03-14T10:37:57.840Z,99085.09
2023-03-14T10:40:31.187Z,99092.72
2023-03-14T10:43:00.121Z,99096.59
2023-03-14T10:48:21.264Z,99106.84
2023-03-14T10:50:57.239Z,99104.56
2023-03-14T10:53:27.469Z,99113.19
2023-03-14T10:55:56.817Z,99113.84
2023-03-14T11:01:35.369Z,99126.28
2023-03-14T11:14:58.835Z,99153.81
2023-03-14T11:17:52.616Z,99171.44
2023-03-14T11:23:12.221Z,99165.38
2023-03-14T11:39:30.199Z,99167.63
2023-03-14T11:42:00.746Z,99180.47
2023-03-14T11:44:33.540Z,99180.53
2023-03-14T11:47:07.842Z,99189.25
2023-03-14T11:52:35.486Z,99197.16
2023-03-14T11:55:27.169Z,99201.41
2023-03-14T11:57:59.614Z,99205.56
2023-03-14T12:00:26.767Z,99210.56
2023-03-14T12:03:33.782Z,99210.47
2023-03-14T12:06:14.712Z,99211.38
2023-03-14T12:08:59.242Z,99216.81
2023-03-14T12:11:49.000Z,99227.16
2023-03-14T12:14:19.640Z,99228.06
2023-03-14T12:16:48.606Z,99237.50
2023-03-14T12:19:26.712Z,99230.47
2023-03-14T12:21:58.954Z,99241.75
2023-03-14T12:24:31.802Z,99226.41
2023-03-14T12:27:02.054Z,99231.00
2023-03-14T12:29:30.955Z,99231.78
2023-03-14T12:32:24.307Z,99236.28
2023-03-14T12:34:51.292Z,99237.94
2023-03-14T12:37:26.592Z,99239.75
2023-03-14T12:40:20.047Z,99238.03
2023-03-14T12:43:05.227Z,99236.31
2023-03-14T12:50:57.827Z,99244.03
2023-03-14T12:59:21.242Z,99241.41
2023-03-14T13:01:55.356Z,99247.44
2023-03-14T13:04:38.890Z,99248.25
2023-03-14T13:07:13.164Z,99232.03
2023-03-14T13:15:20.593Z,99249.03
2023-03-14T13:17:49.501Z,99244.78
2023-03-14T13:20:23.340Z,99254.19
2023-03-14T13:22:51.659Z,99246.66
2023-03-14T13:25:19.421Z,99264.94
2023-03-14T13:27:46.166Z,99253.75
2023-03-14T13:32:54.907Z,99256.31
2023-03-14T13:38:15.904Z,99258.75
2023-03-14T13:40:45.074Z,99260.44
2023-03-14T13:48:29.430Z,99267.28
2023-03-14T13:51:01.660Z,99263.78
2023-03-14T13:53:28.264Z,99261.19
2023-03-14T13:55:55.110Z,99250.75
2023-03-14T13:58:24.997Z,99249.81
2023-03-14T14:03:54.222Z,99264.19
2023-03-14T14:09:04.091Z,99259.63
2023-03-14T14:11:48.864Z,99256.09
2023-03-14T14:14:44.036Z,99250.81
2023-03-14T14:17:17.085Z,99252.41
2023-03-14T14:19:45.193Z,99265.16
2023-03-14T14:22:12.486Z,99280.69
2023-03-14T14:24:40.020Z,99296.16
2023-03-14T14:30:04.314Z,99296.44
2023-03-14T14:32:40.602Z,99287.09
2023-03-14T14:35:10.965Z,99292.56
2023-03-14T14:37:48.298Z,99284.28
2023-03-14T14:42:55.597Z,99286.63
2023-03-14T14:45:25.219Z,99280.06
2023-03-14T14:47:54.498Z,99287.94
2023-03-14T14:50:33.158Z,99294.84
2023-03-14T14:53:02.872Z,99306.06
2023-03-14T14:55:35.862Z,99301.78
2023-03-14T15:01:06.181Z,99299.28
2023-03-14T15:03:34.741Z,99293.34
2023-03-14T15:06:02.764Z,99298.63
2023-03-14T15:08:29.964Z,99308.97
2023-03-14T15:10:57.297Z,99338.31
2023-03-14T15:13:24.131Z,99354.75
2023-03-14T15:15:56.766Z,99342.72
2023-03-14T15:18:26.508Z,99326.44
2023-03-14T15:20:53.631Z,99327.38
2023-03-14T15:23:21.979Z,99327.38
2023-03-14T15:25:57.702Z,99328.25
2023-03-14T15:28:27.339Z,99327.41
2023-03-14T15:30:56.500Z,99330.84
2023-03-14T15:33:24.162Z,99325.69
2023-03-14T15:35:51.254Z,99329.97
2023-03-14T15:38:23.651Z,99329.97
2023-03-14T15:40:51.702Z,99329.97
2023-03-14T15:43:19.362Z,99339.44
2023-03-14T15:45:46.695Z,99340.28
2023-03-14T15:48:19.697Z,99336.84
2023-03-14T15:50:46.785Z,99339.41
2023-03-14T15:53:14.518Z,99338.56
2023-03-14T15:55:41.103Z,99335.13
2023-03-14T15:58:20.594Z,99340.28
2023-03-14T16:00:48.608Z,99339.41
2023-03-14T16:03:15.309Z,99344.56
2023-03-14T16:05:42.080Z,99338.56
2023-03-14T16:08:09.108Z,99340.25
2023-03-14T16:10:35.719Z,99354.84
2023-03-14T16:13:02.965Z,99345.44
2023-03-14T16:15:29.553Z,99348.84
2023-03-14T16:17:56.908Z,99345.41
2023-03-14T16:20:24.347Z,99358.31
2023-03-14T16:22:50.940Z,99350.56
2023-03-14T16:25:18.995Z,99366.03
2023-03-14T16:27:45.854Z,99363.47
2023-03-14T16:30:14.257Z,99365.19
2023-03-14T16:32:41.266Z,99368.63
2023-03-14T16:35:08.257Z,99377.22
2023-03-14T16:37:35.066Z,99379.78
2023-03-14T16:40:12.022Z,99380.69
2023-03-14T16:45:37.034Z,99397.00
2023-03-14T16:48:03.614Z,99407.31
2023-03-14T16:50:30.926Z,99415.03
2023-03-14T16:52:57.598Z,99427.06
2023-03-14T16:55:24.333Z,99427.91
2023-03-14T16:57:50.894Z,99444.19
2023-03-14T17:00:17.959Z,99436.44
2023-03-14T17:02:45.079Z,99448.34
2023-03-14T17:05:11.606Z,99464.69
2023-03-14T17:07:38.197Z,99478.38
2023-03-14T17:10:05.111Z,99480.03
2023-03-14T17:12:31.664Z,99492.78
2023-03-14T17:14:59.980Z,99491.75
2023-03-14T17:17:26.514Z,99501.25
2023-03-14T17:19:53.031Z,99518.22
2023-03-14T17:22:23.933Z,99511.22
2023-03-14T17:24:52.178Z,99522.34
2023-03-14T17:27:20.665Z,99518.09
2023-03-14T17:29:48.632Z,99521.50
2023-03-14T17:32:17.610Z,99522.34
2023-03-14T17:34:44.361Z,99535.13
2023-03-14T17:37:11.358Z,99535.03
2023-03-14T17:39:39.398Z,99541.97
2023-03-14T17:42:06.930Z,99544.59
2023-03-14T17:44:34.857Z,99535.13
2023-03-14T17:47:02.084Z,99537.59
2023-03-14T17:49:28.881Z,99539.28
2023-03-14T17:51:55.589Z,99549.56
2023-03-14T17:54:22.311Z,99547.75
2023-03-14T17:56:49.159Z,99557.19
2023-03-14T17:59:15.984Z,99566.66
2023-03-14T18:01:42.632Z,99574.25
2023-03-14T18:04:09.496Z,99573.31
2023-03-14T18:06:36.337Z,99581.03
2023-03-14T18:09:05.843Z,99586.16
2023-03-14T18:11:32.537Z,99588.63
2023-03-14T18:14:01.631Z,99594.44
2023-03-14T18:16:28.616Z,99592.56
2023-03-14T18:18:57.017Z,99596.66
2023-03-14T18:21:23.972Z,99595.81
2023-03-14T18:23:50.531Z,99596.69
2023-03-14T18:26:18.048Z,99593.94
2023-03-14T18:28:44.903Z,99604.22
2023-03-14T18:31:13.862Z,99609.44
2023-03-14T18:33:42.505Z,99605.91
2023-03-14T18:36:10.544Z,99609.34
2023-03-14T18:38:42.866Z,99604.88
2023-03-14T18:41:11.735Z,99602.38
2023-03-14T18:43:38.666Z,99604.13
2023-03-14T18:46:05.355Z,99602.38
2023-03-14T18:48:32.424Z,99606.66
2023-03-14T18:50:59.793Z,99612.66
2023-03-14T18:53:32.377Z,99608.31
2023-03-14T18:56:00.884Z,99600.59
2023-03-14T18:58:29.256Z,99603.06
2023-03-14T19:00:58.438Z,99602.13
2023-03-14T19:03:26.485Z,99602.88
2023-03-14T19:05:55.327Z,99606.25
2023-03-14T19:08:23.701Z,99600.22
2023-03-14T19:10:51.428Z,99601.00
2023-03-14T19:13:18.355Z,99614.63
2023-03-14T19:15:44.911Z,99623.16
2023-03-14T19:18:11.602Z,99623.94
2023-03-14T19:20:39.481Z,99634.97
2023-03-14T19:23:06.003Z,99641.75
2023-03-14T19:25:32.698Z,99645.97
2023-03-14T19:27:59.234Z,99642.50
2023-03-14T19:30:26.980Z,99657.81
2023-03-14T19:32:53.628Z,99652.66
2023-03-14T19:35:20.356Z,99673.09
2023-03-14T19:37:46.877Z,99666.19
2023-03-14T19:40:13.827Z,99667.00
2023-03-14T19:42:40.415Z,99664.31
2023-03-14T19:45:07.741Z,99683.06
2023-03-14T19:47:34.300Z,99679.53
2023-03-14T19:50:00.866Z,99692.25
2023-03-14T19:52:27.450Z,99694.72
2023-03-14T19:54:54.752Z,99697.22
2023-03-14T19:57:21.307Z,99690.31
2023-03-14T19:59:47.852Z,99695.34
2023-03-14T20:02:15.705Z,99693.66
2023-03-14T20:04:44.407Z,99695.31
2023-03-14T20:07:12.669Z,99692.69
2023-03-14T20:09:40.068Z,99698.63
2023-03-14T20:12:07.569Z,99703.69
2023-03-14T20:14:34.744Z,99707.91
2023-03-14T20:17:01.734Z,99709.50
2023-03-14T20:19:28.494Z,99716.28
2023-03-14T20:21:55.291Z,99716.22
2023-03-14T20:24:21.896Z,99714.41
2023-03-14T20:26:48.438Z,99719.47
2023-03-14T20:29:15.476Z,99721.91
2023-03-14T20:31:42.693Z,99719.28
2023-03-14T20:34:09.375Z,99726.06
2023-03-14T20:36:36.105Z,99724.28
2023-03-14T20:39:05.447Z,99727.63
2023-03-14T20:41:32.532Z,99735.28
2023-03-14T20:43:59.112Z,99740.34
2023-03-14T20:46:25.666Z,99736.00
2023-03-14T20:48:52.314Z,99740.28
2023-03-14T20:51:18.855Z,99745.31
2023-03-14T20:53:45.686Z,99753.78
2023-03-14T20:56:12.253Z,99753.75
2023-03-14T20:58:39.409Z,99761.34
2023-03-14T21:03:50.078Z,99755.22
2023-03-14T21:06:16.603Z,99762.84
2023-03-14T21:08:43.717Z,99762.81
2023-03-14T21:11:10.345Z,99769.59
2023-03-14T21:13:36.872Z,99764.44
2023-03-14T21:16:04.267Z,99771.16
2023-03-14T21:18:31.588Z,99773.66
2023-03-14T21:20:58.190Z,99769.34
2023-03-14T21:23:26.900Z,99776.13
2023-03-14T21:25:54.624Z,99773.50
2023-03-14T21:28:21.184Z,99777.69
2023-03-14T21:30:48.134Z,99777.59
2023-03-14T21:33:15.485Z,99787.69
2023-03-14T21:35:42.445Z,99781.66
2023-03-14T21:38:09.012Z,99788.44
2023-03-14T21:40:37.486Z,99786.66
2023-03-14T21:43:05.302Z,99793.41
2023-03-14T21:45:31.878Z,99792.50
2023-03-14T21:47:58.858Z,99795.84
2023-03-14T21:50:26.640Z,99802.63
2023-03-14T21:52:56.561Z,99800.91
2023-03-14T21:55:25.513Z,99805.09
2023-03-14T21:57:54.571Z,99799.06
2023-03-14T22:00:22.989Z,99798.03
2023-03-14T22:03:11.807Z,99800.53
2023-03-14T22:05:42.052Z,99799.50
2023-03-14T22:08:08.578Z,99800.31
2023-03-14T22:10:35.118Z,99803.59
2023-03-14T22:13:01.638Z,99806.09
2023-03-14T22:15:28.171Z,99806.88
2023-03-14T22:17:54.663Z,99810.19
2023-03-14T22:20:21.202Z,99812.69
2023-03-14T22:22:47.696Z,99815.19
2023-03-14T22:25:14.281Z,99821.09
2023-03-14T22:27:40.853Z,99819.34
2023-03-14T22:30:07.923Z,99812.50
2023-03-14T22:32:34.736Z,99821.88
2023-03-14T22:35:01.299Z,99821.88
2023-03-14T22:37:27.858Z,99820.13
2023-03-14T22:39:54.382Z,99825.22
2023-03-14T22:42:20.930Z,99824.38
2023-03-14T22:44:47.423Z,99814.13
2023-03-14T22:47:13.991Z,99825.13
2023-03-14T22:49:40.575Z,99830.25
2023-03-14T22:52:07.178Z,99830.19
2023-03-14T22:54:33.880Z,99829.34
2023-03-14T22:57:00.412Z,99840.38
2023-03-14T22:59:27.408Z,99831.84
2023-03-14T23:01:53.967Z,99830.97
2023-03-14T23:04:20.958Z,99836.91
2023-03-14T23:06:47.451Z,99835.19
2023-03-14T23:09:14.015Z,99841.91
2023-03-14T23:11:41.677Z,99835.09
2023-03-14T23:14:08.451Z,99835.09
2023-03-14T23:16:40.676Z,99831.63
2023-03-14T23:19:09.796Z,99839.25
2023-03-14T23:21:36.893Z,99842.56
2023-03-14T23:24:05.873Z,99843.38
2023-03-14T23:26:35.747Z,99853.59
2023-03-14T23:29:05.594Z,99856.97
2023-03-14T23:31:32.790Z,99861.97
2023-03-14T23:33:59.328Z,99864.53
2023-03-14T23:36:25.960Z,99873.91
2023-03-14T23:38:52.474Z,99870.53
2023-03-14T23:41:18.973Z,99865.38
2023-03-14T23:43:46.025Z,99868.75
2023-03-14T23:46:13.309Z,99876.41
2023-03-14T23:48:39.915Z,99887.41
2023-03-14T23:51:10.379Z,99887.38
2023-03-14T23:53:36.920Z,99897.56
2023-03-14T23:56:03.751Z,99900.81
2023-03-14T23:58:35.764Z,99910.16
